Startpagina
METAR-TAF:

METAR-TAF

Vliegvelden :

Luchthaven Maputo

Maputo, Mozambique

breedte: 25-55S, lengte: 032-34E, hoogte: 39 m

Actueel weer

Dit bericht is 5 uur en het 31 minuten geleden gemaakt, om 11:00 UTC
Wind 9 kt uit het zuidzuidoosten
Temperatuur 29°C
Vochtigheid 58%
Druk 1012 hPa
Zicht 10 km of meer
Verspreide wolken op 2000 ft

METAR: FQMA 231100Z 15009KT 9999 SCT020 29/20 Q1012 NOSIG

Tijdstip: 18:31 (16:31 UTC)

Verwachting

Dit bericht is 6 uur en het 31 minuten geleden gemaakt, om 10:00 UTC
Verwachting geldig van 23 om 12 UTC tot 24 om 18 UTC
Wind 12 kt uit het oostzuidoosten
Zicht 10 km of meer
Gebroken wolken op 2000 ft
Wijzigt naar
van 24 om 00 UTC tot 24 om 02 UTC
Wind 2 kt uit variabele richting
Wijzigt naar
van 24 om 06 UTC tot 24 om 08 UTC
Wind 8 kt uit het noorden
Wijzigt naar
van 24 om 12 UTC tot 24 om 14 UTC
Wind 12 kt uit het oosten

TAF: FQMA 231000Z 2312/2418 12012KT 9999 BKN020 TX31/2313Z TN23/2403Z BECMG 2400/2402 VRB02KT BECMG 2406/2408 35008KT BECMG 2412/2414 09012KT

Waarnemingen en weersverwachtingen van meer dan 4000 vliegvelden (METAR en TAF).

De beschikbare stations zijn de gele en rode punten op de kaart.

Ga met uw muis naar het station om de naam te zien.

Klik dan om waarnemingen en weersverwachtingen te zien.

kaart wijzigen: klik op de groene knoppen met een zwart kruis om in te zoomen, op de groene knop met een streepje om uit te zoomen of op de groene pijlen voor aangrenzende kaarten.


METAR-TAF: